Messages - map view · info · telemetry · weather · raw · status · beacons · messages · bulletins · browse · moving · my account
Callsign:
Show:

Loading message packets...

APRS messages are stored for 14 days. It is possible to search using wildcards (*?) after a prefix.

2019-04-20 07:00:29 EDT: VE9NBP>: Stage = +6.86 (4E.193)
2019-04-20 07:00:29 EDT: VE9NBP>: Temp = +2.7 (4E.194)
2019-04-20 07:00:32 EDT: SV2JL>SV2BNL-2: ?APRSS
2019-04-20 07:00:34 EDT: SV2BNL-6>SV2JL: UI-View32 V2.03
2019-04-20 07:00:34 EDT: PILMWW>BOM_CANCL: 201600z,WIND,WA_MW003>004-006
2019-04-20 07:00:34 EDT: GASMWW>BOM_CANCL: 201600z,WIND,WA_MW003>004-006
2019-04-20 07:00:34 EDT: PILMWW>BOMPIL: Cancellation of Wind Warning for coastal waters between
2019-04-20 07:00:34 EDT: PILMWW>BOMPIL: Wallal and North West Cape and between Cape Cuvier and
2019-04-20 07:00:34 EDT: PILMWW>BOMPIL: Kalbarri for Saturday
2019-04-20 07:00:34 EDT: GASMWW>BOMGAS: Cancellation of Wind Warning for coastal waters between
2019-04-20 07:00:34 EDT: GASMWW>BOMGAS: Wallal and North West Cape and between Cape Cuvier and
2019-04-20 07:00:34 EDT: GASMWW>BOMGAS: Kalbarri for Saturday
2019-04-20 07:00:34 EDT: SV2BNL-1>SV2JL: SV2W RU736 439.200 & SV2X RV46 145.575
2019-04-20 07:00:37 EDT: QMWMWW>BOM_WARN: 211400z,WIND,QLD_MW009-011
2019-04-20 07:00:37 EDT: QMWMWW>BOMQMW: Strong Wind Warning for coastal waters between St Lawrence
2019-04-20 07:00:37 EDT: QMWMWW>BOMQMW: and Burnett Heads and between Sandy Cape and Double Island
2019-04-20 07:00:37 EDT: QMWMWW>BOMQMW: Point for Sunday
2019-04-20 07:00:43 EDT: K9LUK>K9VSO: gm Jim 31 and .01 rain
2019-04-20 07:00:43 EDT: QMWHSW>BOM_WARN: 201400z,BUSHFIRE,QLD_MW011>012-014
2019-04-20 07:00:43 EDT: QMWHSW>BOMQMW: Hazardous Surf Warning for Fraser Island Coast: Sandy Cape
2019-04-20 07:00:43 EDT: QMWHSW>BOMQMW: to Double Island Point, Sunshine Coast Waters: Double
2019-04-20 07:00:43 EDT: QMWHSW>BOMQMW: Island Point to Cape Moreton and Gold Coast Waters: Cape
2019-04-20 07:00:43 EDT: QMWHSW>BOMQMW: Moreton to Point Danger for Saturday
2019-04-20 07:00:52 EDT: BEAR>KG7AFQ-10: BAKERSMS - SA
2019-04-20 07:01:14 EDT: DB0LUH-1>EA2AB: rejUISS54}
2019-04-20 07:01:21 EDT: K9LUK>K9VSO: gm Jim 31 and .01 rain
2019-04-20 07:01:23 EDT: SV2JL>SV2AHT-7: ?APRST
2019-04-20 07:02:00 EDT: K9LUK>K9VSO: gm Jim 31 and .01 rain
2019-04-20 07:02:18 EDT: CT2HAO-10>APRSPRO: Q1QySEFPLTEwTVNHPzE1NTU3NTgxMzguNDU5NzU=
2019-04-20 07:02:21 EDT: CT2HAO-10>APRSPRO: Q1QySEFPLTEwREVMPzE1NTU3NTgxNDEuMzgyOQ==
2019-04-20 07:02:32 EDT: KB2NGK-15>NWS_WATCH: 201247z,Areal Flood,NYZ032-033-038>043-082>084-VTZ013>015
2019-04-20 07:02:35 EDT: FW0690>FW0690: ZBRT.PVar:-6, PLst:10271
2019-04-20 07:02:41 EDT: K9LUK>K9VSO: gm Jim 31 and .01 rain
2019-04-20 07:03:01 EDT: TCNBFA>BOM-CANCL: 201100z,BUSHFIRE,
2019-04-20 07:03:22 EDT: K9LUK>K9VSO: gm Jim 31 and .01 rain
2019-04-20 07:03:24 EDT: MTHOOD>N7QME: hum 51 12 84
2019-04-20 07:03:25 EDT: SCLSHW>BOM-CANCL: 201100z,SHEEP,WA_PW011>013
2019-04-20 07:03:31 EDT: SECSHW>BOM-CANCL: 201100z,SHEEP,WA_PW011>013
2019-04-20 07:03:37 EDT: GTSSHW>BOM-CANCL: 201100z,SHEEP,WA_PW011>013
2019-04-20 07:04:01 EDT: WLWSHW>BOM-CANCL: 201100z,SHEEP,WA_PW009>010-014
2019-04-20 07:04:03 EDT: K9LUK>K9VSO: gm Jim 31 and .01 rain
2019-04-20 07:04:04 EDT: W8KDG-11>APRSPRO: VzhLREctMTEgREVMPzE1NTU3NTgyNDQuNDQxMzI=
2019-04-20 07:04:07 EDT: WSWSHW>BOM-CANCL: 201100z,SHEEP,WA_PW009>010-014
2019-04-20 07:04:13 EDT: CWBSHW>BOM-CANCL: 201100z,SHEEP,WA_PW009>010-014
2019-04-20 07:04:20 EDT: DB0TS-10>DB0TS-9: T#001,000,000,000,000,000,00000000,Test
2019-04-20 07:04:25 EDT: QMWHSW>BOM-CANCL: 201100z,SHEEP,QLD_MW011>012-014
2019-04-20 07:04:44 EDT: K9LUK>K9VSO: gm Jim 31 and .01 rain
2019-04-20 07:05:23 EDT: VE9NBP>: Stage = +6.76 (4E.195)
2019-04-20 07:05:24 EDT: VE9NBP>: Temp = +2.7 (4E.196)
2019-04-20 07:05:29 EDT: K9LUK>K9VSO: gm Jim 31 and .01 rain
< previous
FAQ · Blog · Discussion group · Linking to aprs.fi · AIS sites · Service status · Database statistics · Advertising on aprs.fi · Technical details · API · Change log · Planned changes · Credits and thanks · Terms Of Service · iPhone/iPad APRS